createdAt,value
2023-05-21T00:00:14.498Z,0.00
2023-05-21T00:05:15.054Z,0.00
2023-05-21T00:10:14.159Z,0.00
2023-05-21T00:15:15.169Z,0.00
2023-05-21T00:20:16.187Z,0.00
2023-05-21T00:25:18.237Z,0.00
2023-05-21T00:30:18.309Z,0.00
2023-05-21T00:35:18.323Z,0.00
2023-05-21T00:40:17.416Z,0.00
2023-05-21T00:45:18.419Z,0.00
2023-05-21T00:50:19.450Z,0.00
2023-05-21T00:55:20.505Z,0.00
2023-05-21T01:00:21.519Z,0.00
2023-05-21T01:05:22.544Z,0.00
2023-05-21T01:10:24.577Z,0.00
2023-05-21T01:15:23.613Z,0.00
2023-05-21T01:20:24.654Z,0.00
2023-05-21T01:25:25.715Z,0.00
2023-05-21T01:30:27.780Z,0.00
2023-05-21T01:35:26.811Z,0.00
2023-05-21T01:40:27.875Z,0.00
2023-05-21T01:45:28.942Z,0.00
2023-05-21T01:50:29.957Z,0.00
2023-05-21T01:55:36.308Z,0.00
2023-05-21T02:00:32.450Z,0.00
2023-05-21T02:05:32.778Z,0.00
2023-05-21T02:10:31.840Z,0.00
2023-05-21T02:15:33.975Z,0.00
2023-05-21T02:20:33.033Z,0.00
2023-05-21T02:25:34.342Z,0.00
2023-05-21T02:30:32.565Z,0.00
2023-05-21T02:35:33.660Z,0.00
2023-05-21T02:40:35.637Z,0.00
2023-05-21T02:45:34.905Z,0.00
2023-05-21T02:50:34.145Z,0.00
2023-05-21T02:55:36.520Z,0.00
2023-05-21T03:00:36.733Z,0.00
2023-05-21T03:05:36.009Z,0.00
2023-05-21T03:10:37.193Z,0.00
2023-05-21T03:15:38.485Z,0.00
2023-05-21T03:20:39.537Z,0.00
2023-05-21T03:25:40.587Z,0.00
2023-05-21T03:30:41.619Z,0.00
2023-05-21T03:35:42.650Z,0.00
2023-05-21T03:40:43.714Z,5.62
2023-05-21T03:45:45.034Z,5.62
2023-05-21T03:50:47.099Z,11.25
2023-05-21T03:55:47.133Z,16.88
2023-05-21T04:00:46.158Z,22.50
2023-05-21T04:05:47.189Z,33.75
2023-05-21T04:10:48.210Z,39.38
2023-05-21T04:15:50.296Z,50.62
2023-05-21T04:20:50.321Z,67.50
2023-05-21T04:25:49.339Z,78.75
2023-05-21T04:30:51.465Z,95.62
2023-05-21T04:35:52.513Z,112.50
2023-05-21T04:40:52.556Z,129.38
2023-05-21T04:45:51.575Z,151.88
2023-05-21T04:50:52.601Z,163.12
2023-05-21T04:55:53.644Z,180.00
2023-05-21T05:00:54.725Z,191.25
2023-05-21T05:05:55.715Z,202.50
2023-05-21T05:10:57.769Z,225.00
2023-05-21T05:15:58.792Z,247.50
2023-05-21T05:20:57.951Z,264.38
2023-05-21T05:25:59.014Z,292.50
2023-05-21T05:31:00.238Z,326.25
2023-05-21T05:36:01.384Z,371.25
2023-05-21T05:41:02.447Z,405.00
2023-05-21T05:46:03.622Z,433.12
2023-05-21T05:51:04.709Z,455.62
2023-05-21T05:56:05.837Z,461.25
2023-05-21T06:01:08.868Z,455.62
2023-05-21T06:06:08.100Z,461.25
2023-05-21T06:11:09.265Z,495.00
2023-05-21T06:16:11.328Z,534.38
2023-05-21T06:21:10.405Z,590.62
2023-05-21T06:26:11.429Z,590.62
2023-05-21T06:31:12.471Z,568.12
2023-05-21T06:36:14.633Z,517.50
2023-05-21T06:41:13.724Z,472.50
2023-05-21T06:46:15.794Z,455.62
2023-05-21T06:51:14.924Z,455.62
2023-05-21T06:56:15.969Z,450.00
2023-05-21T07:01:17.103Z,450.00
2023-05-21T07:06:18.299Z,433.12
2023-05-21T07:11:20.326Z,427.50
2023-05-21T07:16:19.372Z,410.62
2023-05-21T07:21:20.757Z,405.00
2023-05-21T07:26:21.775Z,399.38
2023-05-21T07:31:22.848Z,399.38
2023-05-21T07:36:23.997Z,416.25
2023-05-21T07:41:26.033Z,427.50
2023-05-21T07:46:25.125Z,444.38
2023-05-21T07:51:26.159Z,450.00
2023-05-21T07:56:27.205Z,461.25
2023-05-21T08:01:29.245Z,483.75
2023-05-21T08:06:28.296Z,483.75
2023-05-21T08:11:29.531Z,483.75
2023-05-21T08:16:30.639Z,495.00
2023-05-21T08:21:31.724Z,517.50
2023-05-21T08:26:32.777Z,534.38
2023-05-21T08:31:34.315Z,540.00
2023-05-21T08:36:34.323Z,556.88
2023-05-21T08:41:33.392Z,579.38
2023-05-21T08:46:34.516Z,585.00
2023-05-21T08:51:36.551Z,585.00
2023-05-21T08:56:35.600Z,579.38
2023-05-21T09:01:37.699Z,579.38
2023-05-21T09:06:36.772Z,579.38
2023-05-21T09:11:37.827Z,579.38
2023-05-21T09:16:38.903Z,579.38
2023-05-21T09:21:40.906Z,585.00
2023-05-21T09:26:40.969Z,590.62
2023-05-21T09:31:40.074Z,596.25
2023-05-21T09:36:41.208Z,601.88
2023-05-21T09:41:41.489Z,601.88
2023-05-21T09:46:43.555Z,596.25
2023-05-21T09:51:42.583Z,596.25
2023-05-21T09:56:43.638Z,590.62
2023-05-21T10:01:46.745Z,585.00
2023-05-21T10:06:46.736Z,573.75
2023-05-21T10:11:50.687Z,568.12
2023-05-21T10:16:45.928Z,573.75
2023-05-21T10:21:47.002Z,573.75
2023-05-21T10:26:49.020Z,585.00
2023-05-21T10:31:48.115Z,585.00
2023-05-21T10:36:49.205Z,568.12
2023-05-21T10:41:53.200Z,545.62
2023-05-21T10:46:51.168Z,534.38
2023-05-21T10:51:52.204Z,523.12
2023-05-21T10:56:53.241Z,534.38
2023-05-21T11:01:55.297Z,562.50
2023-05-21T11:06:55.331Z,585.00
2023-05-21T11:11:56.360Z,607.50
2023-05-21T11:16:54.465Z,635.62
2023-05-21T11:21:56.474Z,663.75
2023-05-21T11:26:57.512Z,663.75
2023-05-21T11:31:56.556Z,658.12
2023-05-21T11:36:58.603Z,658.12
2023-05-21T11:41:59.825Z,641.25
2023-05-21T11:46:59.023Z,635.62
2023-05-21T11:51:58.136Z,652.50
2023-05-21T11:56:59.142Z,669.38
2023-05-21T12:02:02.210Z,675.00
2023-05-21T12:07:06.363Z,680.62
2023-05-21T12:12:01.416Z,680.62
2023-05-21T12:17:02.505Z,675.00
2023-05-21T12:22:04.577Z,646.88
2023-05-21T12:27:03.707Z,618.75
2023-05-21T12:32:06.843Z,596.25
2023-05-21T12:37:05.919Z,568.12
2023-05-21T12:42:08.935Z,556.88
2023-05-21T12:47:08.087Z,562.50
2023-05-21T12:52:11.119Z,585.00
2023-05-21T12:57:10.239Z,618.75
2023-05-21T13:02:11.313Z,630.00
2023-05-21T13:07:12.501Z,635.62
2023-05-21T13:12:13.701Z,607.50
2023-05-21T13:17:16.736Z,607.50
2023-05-21T13:22:15.858Z,573.75
2023-05-21T13:27:17.915Z,573.75
2023-05-21T13:32:17.019Z,511.88
2023-05-21T13:37:18.108Z,483.75
2023-05-21T13:42:19.266Z,506.25
2023-05-21T13:47:20.501Z,495.00
2023-05-21T13:52:22.505Z,500.62
2023-05-21T13:57:21.560Z,573.75
2023-05-21T14:02:22.704Z,590.62
2023-05-21T14:07:23.743Z,590.62
2023-05-21T14:12:24.783Z,556.88
2023-05-21T14:17:24.839Z,517.50
2023-05-21T14:22:26.850Z,534.38
2023-05-21T14:27:25.918Z,556.88
2023-05-21T14:32:28.024Z,613.12
2023-05-21T14:37:28.069Z,613.12
2023-05-21T14:42:27.123Z,607.50
2023-05-21T14:47:28.171Z,658.12
2023-05-21T14:52:29.225Z,652.50
2023-05-21T14:57:30.284Z,641.25
2023-05-21T15:02:31.481Z,630.00
2023-05-21T15:07:32.554Z,573.75
2023-05-21T15:12:33.620Z,472.50
2023-05-21T15:17:34.706Z,495.00
2023-05-21T15:22:36.692Z,500.62
2023-05-21T15:27:36.740Z,495.00
2023-05-21T15:32:35.820Z,472.50
2023-05-21T15:37:36.885Z,506.25
2023-05-21T15:42:38.933Z,506.25
2023-05-21T15:47:38.277Z,483.75
2023-05-21T15:52:37.762Z,517.50
2023-05-21T15:57:38.985Z,450.00
2023-05-21T16:02:41.086Z,360.00
2023-05-21T16:07:41.243Z,303.75
2023-05-21T16:12:40.412Z,258.75
2023-05-21T16:17:42.728Z,191.25
2023-05-21T16:22:42.928Z,174.38
2023-05-21T16:27:43.262Z,129.38
2023-05-21T16:32:42.679Z,118.12
2023-05-21T16:37:45.066Z,112.50
2023-05-21T16:42:44.498Z,123.75
2023-05-21T16:47:46.020Z,129.38
2023-05-21T16:52:45.453Z,135.00
2023-05-21T16:57:47.940Z,129.38
2023-05-21T17:02:47.500Z,123.75
2023-05-21T17:07:46.942Z,118.12
2023-05-21T17:12:48.375Z,112.50
2023-05-21T17:17:49.931Z,112.50
2023-05-21T17:22:49.486Z,112.50
2023-05-21T17:27:49.017Z,106.88
2023-05-21T17:32:48.604Z,106.88
2023-05-21T17:37:49.070Z,106.88
2023-05-21T17:42:49.606Z,101.25
2023-05-21T17:47:50.253Z,101.25
2023-05-21T17:52:50.816Z,101.25
2023-05-21T17:57:52.445Z,101.25
2023-05-21T18:02:50.021Z,95.62
2023-05-21T18:07:50.541Z,84.38
2023-05-21T18:12:51.126Z,67.50
2023-05-21T18:17:51.703Z,56.25
2023-05-21T18:22:51.254Z,50.62
2023-05-21T18:27:52.839Z,39.38
2023-05-21T18:32:50.426Z,33.75
2023-05-21T18:37:51.004Z,22.50
2023-05-21T18:42:51.617Z,16.88
2023-05-21T18:47:52.218Z,11.25
2023-05-21T18:52:53.373Z,5.62
2023-05-21T18:57:52.962Z,5.62
2023-05-21T19:02:53.556Z,0.00
2023-05-21T19:07:59.419Z,0.00
2023-05-21T19:12:55.609Z,0.00
2023-05-21T19:17:53.279Z,0.00
2023-05-21T19:22:52.828Z,0.00
2023-05-21T19:27:52.400Z,0.00
2023-05-21T19:32:52.996Z,0.00
2023-05-21T19:37:53.496Z,0.00
2023-05-21T19:42:53.112Z,0.00
2023-05-21T19:47:53.730Z,0.00
2023-05-21T19:52:54.276Z,0.00
2023-05-21T19:57:54.830Z,0.00
2023-05-21T20:02:54.478Z,0.00
2023-05-21T20:07:54.055Z,0.00
2023-05-21T20:12:53.761Z,0.00
2023-05-21T20:17:53.324Z,0.00
2023-05-21T20:22:53.857Z,0.00
2023-05-21T20:27:54.427Z,0.00
2023-05-21T20:32:53.963Z,0.00
2023-05-21T20:37:53.408Z,0.00
2023-05-21T20:42:53.083Z,0.00
2023-05-21T20:47:52.456Z,0.00
2023-05-21T20:52:53.984Z,0.00
2023-05-21T20:57:53.299Z,0.00
2023-05-21T21:02:54.446Z,0.00
2023-05-21T21:07:56.104Z,0.00
2023-05-21T21:12:55.279Z,0.00
2023-05-21T21:17:56.353Z,0.00
2023-05-21T21:23:02.259Z,0.00
2023-05-21T21:27:57.324Z,0.00
2023-05-21T21:32:58.464Z,0.00
2023-05-21T21:37:59.459Z,0.00
2023-05-21T21:43:01.028Z,0.00
2023-05-21T21:48:00.206Z,0.00
2023-05-21T21:53:01.311Z,0.00
2023-05-21T21:58:02.566Z,0.00
2023-05-21T22:03:03.773Z,0.00
2023-05-21T22:08:04.864Z,0.00
2023-05-21T22:13:05.981Z,0.00
2023-05-21T22:18:07.073Z,0.00
2023-05-21T22:23:08.181Z,0.00
2023-05-21T22:28:11.243Z,0.00
2023-05-21T22:33:10.433Z,0.00
2023-05-21T22:38:11.453Z,0.00
2023-05-21T22:43:12.537Z,0.00
2023-05-21T22:48:14.556Z,0.00
2023-05-21T22:53:13.597Z,0.00
2023-05-21T22:58:15.645Z,0.00
2023-05-21T23:03:14.715Z,0.00
2023-05-21T23:08:15.750Z,0.00
2023-05-21T23:13:16.781Z,0.00
2023-05-21T23:18:17.822Z,0.00
2023-05-21T23:23:19.911Z,0.00
2023-05-21T23:28:18.929Z,0.00
2023-05-21T23:33:20.988Z,0.00
2023-05-21T23:38:20.045Z,0.00
2023-05-21T23:43:22.088Z,0.00
2023-05-21T23:48:21.206Z,0.00
2023-05-21T23:53:22.239Z,0.00
2023-05-21T23:58:24.287Z,0.00
